createdAt,value
2022-08-05T00:01:36.534Z,45.07
2022-08-05T00:04:17.145Z,45.20
2022-08-05T00:06:47.573Z,45.07
2022-08-05T00:09:20.414Z,44.99
2022-08-05T00:11:55.836Z,45.07
2022-08-05T00:14:31.379Z,45.02
2022-08-05T00:17:02.064Z,45.13
2022-08-05T00:19:32.790Z,45.01
2022-08-05T00:22:02.400Z,45.14
2022-08-05T00:24:31.186Z,45.24
2022-08-05T00:27:01.739Z,45.29
2022-08-05T00:29:38.064Z,45.45
2022-08-05T00:32:13.013Z,45.53
2022-08-05T00:35:03.982Z,45.69
2022-08-05T00:37:50.617Z,45.91
2022-08-05T00:40:27.930Z,46.08
2022-08-05T00:43:00.865Z,46.16
2022-08-05T00:45:38.511Z,46.29
2022-08-05T00:48:11.550Z,46.27
2022-08-05T00:50:41.218Z,46.27
2022-08-05T00:53:44.955Z,46.14
2022-08-05T00:55:58.632Z,46.20
2022-08-05T00:58:28.047Z,45.93
2022-08-05T01:00:56.450Z,46.01
2022-08-05T01:03:33.392Z,45.89
2022-08-05T01:06:02.636Z,45.96
2022-08-05T01:08:42.974Z,45.94
2022-08-05T01:11:22.629Z,46.06
2022-08-05T01:14:08.481Z,46.11
2022-08-05T01:16:41.687Z,46.32
2022-08-05T01:19:17.458Z,46.38
2022-08-05T01:21:59.856Z,46.36
2022-08-05T01:24:51.285Z,46.53
2022-08-05T01:27:33.048Z,46.42
2022-08-05T01:30:03.722Z,46.43
2022-08-05T01:32:33.384Z,46.42
2022-08-05T01:35:04.230Z,46.35
2022-08-05T01:37:44.269Z,46.25
2022-08-05T01:40:12.839Z,46.14
2022-08-05T01:42:41.190Z,46.16
2022-08-05T01:45:11.543Z,46.20
2022-08-05T01:47:43.434Z,46.33
2022-08-05T01:50:15.328Z,46.39
2022-08-05T01:52:44.209Z,46.31
2022-08-05T01:55:13.045Z,46.37
2022-08-05T01:58:09.772Z,46.53
2022-08-05T02:00:31.610Z,46.58
2022-08-05T02:03:03.729Z,46.59
2022-08-05T02:05:34.359Z,46.55
2022-08-05T02:08:04.267Z,46.63
2022-08-05T02:10:49.750Z,46.78
2022-08-05T02:13:20.131Z,46.65
2022-08-05T02:15:58.915Z,46.72
2022-08-05T02:18:34.651Z,46.71
2022-08-05T02:21:05.777Z,46.59
2022-08-05T02:23:43.782Z,46.69
2022-08-05T02:26:14.913Z,46.76
2022-08-05T02:28:46.030Z,47.01
2022-08-05T02:31:16.915Z,46.93
2022-08-05T02:33:57.173Z,47.17
2022-08-05T02:36:31.612Z,47.05
2022-08-05T02:39:00.130Z,47.17
2022-08-05T02:41:42.830Z,47.18
2022-08-05T02:44:16.653Z,47.30
2022-08-05T02:46:58.730Z,47.26
2022-08-05T02:49:36.701Z,47.53
2022-08-05T02:52:07.573Z,47.55
2022-08-05T02:54:37.430Z,47.50
2022-08-05T02:57:10.259Z,47.46
2022-08-05T02:59:55.258Z,47.66
2022-08-05T03:02:27.417Z,47.90
2022-08-05T03:04:56.134Z,48.03
2022-08-05T03:08:00.115Z,47.94
2022-08-05T03:10:13.243Z,47.99
2022-08-05T03:12:41.530Z,47.99
2022-08-05T03:15:12.436Z,48.12
2022-08-05T03:17:44.825Z,48.08
2022-08-05T03:20:13.841Z,48.17
2022-08-05T03:22:44.030Z,48.00
2022-08-05T03:25:32.611Z,48.05
2022-08-05T03:28:07.199Z,48.13
2022-08-05T03:30:36.679Z,48.05
2022-08-05T03:33:07.759Z,48.19
2022-08-05T03:35:40.945Z,48.32
2022-08-05T03:38:11.710Z,48.49
2022-08-05T03:40:41.668Z,48.22
2022-08-05T03:43:59.131Z,48.53
2022-08-05T03:46:01.810Z,48.67
2022-08-05T03:48:35.354Z,48.82
2022-08-05T03:52:37.118Z,48.81
2022-08-05T03:55:50.443Z,49.05
2022-08-05T03:56:48.354Z,49.09
2022-08-05T03:59:20.690Z,49.30
2022-08-05T04:01:50.303Z,49.58
2022-08-05T04:04:21.106Z,49.32
2022-08-05T04:06:51.340Z,49.57
2022-08-05T04:09:26.096Z,49.67
2022-08-05T04:11:56.372Z,49.63
2022-08-05T04:14:29.978Z,49.86
2022-08-05T04:17:00.768Z,50.10
2022-08-05T04:19:31.634Z,50.32
2022-08-05T04:22:09.576Z,50.65
2022-08-05T04:24:44.486Z,50.72
2022-08-05T04:27:41.721Z,50.66
2022-08-05T04:30:09.884Z,50.74
2022-08-05T04:32:37.974Z,50.73
2022-08-05T04:35:17.638Z,51.11
2022-08-05T04:38:02.370Z,51.11
2022-08-05T04:40:36.036Z,51.11
2022-08-05T04:43:04.333Z,51.20
2022-08-05T04:45:48.280Z,50.96
2022-08-05T04:48:27.122Z,50.98
2022-08-05T04:51:03.813Z,51.04
2022-08-05T04:53:39.786Z,50.85
2022-08-05T04:56:15.367Z,50.93
2022-08-05T04:58:56.892Z,50.80
2022-08-05T05:01:33.440Z,50.86
2022-08-05T05:04:13.319Z,50.81
2022-08-05T05:06:49.089Z,50.86
2022-08-05T05:09:20.160Z,50.88
2022-08-05T05:11:54.355Z,51.29
2022-08-05T05:14:27.895Z,51.35
2022-08-05T05:17:00.033Z,51.15
2022-08-05T05:19:36.341Z,51.25
2022-08-05T05:22:24.668Z,51.19
2022-08-05T05:24:57.067Z,51.38
2022-08-05T05:27:44.214Z,51.27
2022-08-05T05:30:15.642Z,51.16
2022-08-05T05:33:00.422Z,51.25
2022-08-05T05:35:34.256Z,51.30
2022-08-05T05:38:09.276Z,51.28
2022-08-05T05:40:47.976Z,51.34
2022-08-05T05:43:28.209Z,51.22
2022-08-05T05:46:13.765Z,51.29
2022-08-05T05:48:44.797Z,51.33
2022-08-05T05:51:19.845Z,51.53
2022-08-05T05:53:57.709Z,51.63
2022-08-05T05:56:32.936Z,51.83
2022-08-05T05:59:05.494Z,51.86
2022-08-05T06:01:37.426Z,51.78
2022-08-05T06:04:08.076Z,51.81
2022-08-05T06:06:36.426Z,51.67
2022-08-05T06:09:06.233Z,51.90
2022-08-05T06:11:39.366Z,51.74
2022-08-05T06:14:07.727Z,51.74
2022-08-05T06:16:37.241Z,51.76
2022-08-05T06:19:07.580Z,51.77
2022-08-05T06:21:38.714Z,51.66
2022-08-05T06:24:12.587Z,51.51
2022-08-05T06:26:51.270Z,51.14
2022-08-05T06:29:25.267Z,50.90
2022-08-05T06:32:21.331Z,50.53
2022-08-05T06:34:57.433Z,50.56
2022-08-05T06:37:56.224Z,50.25
2022-08-05T06:40:17.905Z,50.00
2022-08-05T06:42:46.549Z,49.76
2022-08-05T06:45:21.027Z,49.44
2022-08-05T06:48:37.246Z,49.07
2022-08-05T06:50:37.669Z,48.91
2022-08-05T06:53:19.641Z,49.12
2022-08-05T06:55:53.187Z,48.75
2022-08-05T06:58:35.311Z,48.22
2022-08-05T07:01:05.443Z,48.14
2022-08-05T07:03:33.646Z,47.76
2022-08-05T07:06:05.818Z,47.51
2022-08-05T07:08:42.832Z,47.28
2022-08-05T07:11:15.497Z,47.01
2022-08-05T07:14:01.313Z,46.90
2022-08-05T07:18:01.615Z,46.73
2022-08-05T07:22:28.976Z,46.86
2022-08-05T07:25:23.450Z,46.69
2022-08-05T07:27:58.017Z,46.55
2022-08-05T07:30:32.562Z,46.46
2022-08-05T07:33:05.549Z,45.98
2022-08-05T07:36:02.940Z,46.06
2022-08-05T07:38:33.491Z,46.13
2022-08-05T07:41:35.124Z,46.16
2022-08-05T07:43:56.623Z,46.27
2022-08-05T07:46:26.599Z,46.06
2022-08-05T07:49:04.535Z,45.86
2022-08-05T07:51:37.145Z,45.67
2022-08-05T07:54:10.376Z,45.87
2022-08-05T07:57:01.582Z,46.16
2022-08-05T07:59:38.094Z,45.42
2022-08-05T08:02:16.082Z,44.42
2022-08-05T08:04:48.785Z,44.46
2022-08-05T08:07:17.827Z,44.63
2022-08-05T08:09:46.631Z,44.59
2022-08-05T08:12:35.549Z,44.62
2022-08-05T08:15:14.292Z,43.56
2022-08-05T08:17:49.844Z,43.72
2022-08-05T08:20:43.978Z,43.65
2022-08-05T08:24:01.070Z,43.95
2022-08-05T08:26:02.688Z,43.40
2022-08-05T08:28:36.334Z,43.05
2022-08-05T08:31:10.054Z,43.09
2022-08-05T08:33:45.894Z,43.65
2022-08-05T08:36:29.690Z,43.88
2022-08-05T08:39:04.923Z,43.38
2022-08-05T08:41:52.275Z,43.22
2022-08-05T08:45:25.004Z,42.81
2022-08-05T08:48:06.233Z,43.42
2022-08-05T08:50:30.725Z,42.94
2022-08-05T08:53:03.387Z,43.01
2022-08-05T08:56:03.653Z,42.08
2022-08-05T08:58:43.389Z,42.18
2022-08-05T09:01:18.385Z,42.92
2022-08-05T09:03:55.158Z,42.85
2022-08-05T09:06:29.370Z,43.02
2022-08-05T09:08:59.513Z,42.87
2022-08-05T09:11:52.861Z,43.06
2022-08-05T09:14:58.425Z,43.14
2022-08-05T09:17:09.549Z,43.56
2022-08-05T09:20:02.541Z,43.77
2022-08-05T09:23:05.141Z,43.75
2022-08-05T09:26:01.958Z,43.21
2022-08-05T09:28:32.004Z,43.22
2022-08-05T09:31:22.151Z,43.56
2022-08-05T09:33:52.449Z,43.02
2022-08-05T09:36:27.823Z,42.78
2022-08-05T09:39:03.764Z,42.15
2022-08-05T09:41:58.346Z,42.06
2022-08-05T09:44:38.525Z,42.00
2022-08-05T09:47:13.966Z,42.11
2022-08-05T09:50:01.226Z,41.62
2022-08-05T09:52:33.794Z,41.39
2022-08-05T09:55:06.299Z,41.55
2022-08-05T09:57:39.686Z,42.08
2022-08-05T10:00:13.626Z,41.44
2022-08-05T10:02:43.409Z,41.64
2022-08-05T10:05:13.966Z,41.75
2022-08-05T10:08:36.106Z,41.67
2022-08-05T10:10:41.568Z,41.26
2022-08-05T10:13:10.134Z,41.31
2022-08-05T10:15:41.384Z,41.38
2022-08-05T10:18:12.563Z,40.41
2022-08-05T10:20:43.029Z,40.18
2022-08-05T10:23:34.339Z,40.50
2022-08-05T10:26:06.972Z,41.04
2022-08-05T10:28:36.445Z,41.19
2022-08-05T10:32:49.238Z,41.38
2022-08-05T10:33:54.793Z,40.57
2022-08-05T10:36:26.036Z,40.63
2022-08-05T10:39:01.039Z,40.96
2022-08-05T10:41:45.227Z,40.92
2022-08-05T10:44:18.535Z,40.68
2022-08-05T10:46:50.671Z,40.25
2022-08-05T10:49:27.217Z,39.82
2022-08-05T10:52:05.153Z,39.65
2022-08-05T10:55:03.997Z,39.22
2022-08-05T10:57:33.907Z,38.82
2022-08-05T11:00:19.153Z,38.81
2022-08-05T11:03:25.979Z,38.10
2022-08-05T11:06:15.579Z,38.54
2022-08-05T11:09:32.285Z,38.60
2022-08-05T11:12:50.369Z,38.25
2022-08-05T11:16:00.499Z,38.91
2022-08-05T11:18:25.828Z,39.21
2022-08-05T11:20:54.650Z,38.77
2022-08-05T11:24:05.379Z,38.73
2022-08-05T11:26:37.947Z,39.03
2022-08-05T11:29:14.373Z,39.12
2022-08-05T11:31:58.906Z,39.07
2022-08-05T11:34:52.214Z,39.28
2022-08-05T11:38:30.408Z,39.21
2022-08-05T11:41:01.354Z,38.57
2022-08-05T11:44:04.787Z,38.09
2022-08-05T11:46:35.611Z,38.49
2022-08-05T11:49:04.505Z,38.50
2022-08-05T11:51:44.256Z,38.48
2022-08-05T11:54:33.431Z,38.89
2022-08-05T11:57:07.987Z,39.06
2022-08-05T11:59:41.241Z,38.66
2022-08-05T12:02:31.451Z,38.43
2022-08-05T12:05:01.197Z,38.63
2022-08-05T12:08:03.301Z,38.34
2022-08-05T12:10:43.374Z,38.74
2022-08-05T12:13:27.924Z,38.84
2022-08-05T12:16:15.049Z,37.84
2022-08-05T12:18:49.086Z,37.20
2022-08-05T12:21:23.598Z,36.94
2022-08-05T12:23:56.776Z,36.58
2022-08-05T12:26:26.537Z,37.28
2022-08-05T12:28:54.704Z,36.39
2022-08-05T12:31:23.440Z,36.31
2022-08-05T12:34:09.787Z,36.21
2022-08-05T12:36:49.105Z,36.96
2022-08-05T12:39:17.676Z,37.24
2022-08-05T12:41:46.603Z,36.41
2022-08-05T12:44:28.697Z,36.63
2022-08-05T12:47:02.556Z,36.73
2022-08-05T12:50:03.388Z,37.72
2022-08-05T12:52:38.158Z,37.89
2022-08-05T12:55:22.224Z,37.65
2022-08-05T12:58:50.806Z,36.64
2022-08-05T13:02:00.324Z,36.67
2022-08-05T13:03:42.289Z,36.26
2022-08-05T13:06:18.098Z,36.39
2022-08-05T13:08:50.924Z,36.49
2022-08-05T13:11:25.637Z,35.66
2022-08-05T13:14:20.080Z,36.23
2022-08-05T13:16:53.955Z,35.91
2022-08-05T13:19:51.000Z,34.13
2022-08-05T13:22:27.743Z,34.58
2022-08-05T13:25:00.653Z,34.92
2022-08-05T13:27:38.438Z,34.64
2022-08-05T13:30:33.536Z,34.99
2022-08-05T13:33:01.373Z,35.58
2022-08-05T13:35:47.448Z,34.51
2022-08-05T13:38:30.982Z,34.20
2022-08-05T13:41:04.950Z,35.23
2022-08-05T13:43:44.271Z,34.80
2022-08-05T13:46:50.678Z,33.96
2022-08-05T13:49:13.731Z,33.34
2022-08-05T13:51:46.220Z,34.64
2022-08-05T13:54:21.115Z,35.02
2022-08-05T13:56:54.187Z,34.61
2022-08-05T13:59:24.346Z,34.89
2022-08-05T14:01:57.804Z,34.74
2022-08-05T14:04:49.446Z,34.26
2022-08-05T14:07:56.907Z,33.51
2022-08-05T14:10:12.519Z,32.94
2022-08-05T14:12:42.854Z,32.68
2022-08-05T14:16:04.846Z,33.56
2022-08-05T14:18:03.952Z,32.77
2022-08-05T14:20:33.153Z,33.12
2022-08-05T14:23:01.475Z,31.78
2022-08-05T14:25:32.355Z,31.70
2022-08-05T14:28:03.985Z,32.06
2022-08-05T14:30:32.478Z,32.08
2022-08-05T14:33:04.707Z,31.92
2022-08-05T14:35:50.229Z,32.81
2022-08-05T14:38:32.738Z,32.05
2022-08-05T14:41:07.656Z,32.66
2022-08-05T14:43:59.191Z,32.10
2022-08-05T14:46:28.316Z,31.96
2022-08-05T14:48:57.964Z,31.82
2022-08-05T14:51:31.047Z,31.10
2022-08-05T14:54:26.479Z,30.59
2022-08-05T14:56:51.710Z,31.16
2022-08-05T14:59:24.197Z,30.43
2022-08-05T15:01:54.239Z,29.84
2022-08-05T15:04:27.402Z,29.66
2022-08-05T15:06:58.208Z,28.88
2022-08-05T15:09:52.315Z,29.37
2022-08-05T15:12:18.351Z,29.43
2022-08-05T15:14:49.587Z,29.74
2022-08-05T15:17:46.896Z,30.07
2022-08-05T15:20:15.542Z,29.90
2022-08-05T15:22:54.004Z,29.70
2022-08-05T15:25:51.406Z,30.46
2022-08-05T15:28:14.630Z,30.63
2022-08-05T15:30:43.825Z,30.41
2022-08-05T15:34:04.045Z,30.90
2022-08-05T15:36:05.706Z,31.91
2022-08-05T15:38:47.943Z,31.87
2022-08-05T15:41:21.267Z,31.41
2022-08-05T15:43:54.893Z,31.56
2022-08-05T15:46:24.422Z,31.07
2022-08-05T15:48:58.534Z,30.72
2022-08-05T15:52:09.822Z,31.07
2022-08-05T15:54:17.678Z,30.97
2022-08-05T15:56:45.831Z,30.89
2022-08-05T15:59:21.611Z,31.06
2022-08-05T16:01:52.766Z,30.73
2022-08-05T16:04:25.383Z,31.43
2022-08-05T16:06:55.681Z,31.92
2022-08-05T16:09:24.878Z,31.88
2022-08-05T16:11:53.986Z,31.53
2022-08-05T16:14:23.944Z,31.78
2022-08-05T16:16:52.312Z,31.66
2022-08-05T16:20:02.664Z,31.85
2022-08-05T16:22:10.571Z,32.45
2022-08-05T16:24:39.978Z,32.32
2022-08-05T16:27:16.010Z,32.80
2022-08-05T16:29:50.890Z,32.67
2022-08-05T16:32:28.406Z,32.73
2022-08-05T16:34:58.650Z,32.10
2022-08-05T16:38:16.051Z,32.61
2022-08-05T16:40:26.528Z,32.55
2022-08-05T16:42:57.662Z,32.58
2022-08-05T16:46:06.811Z,32.57
2022-08-05T16:48:25.403Z,32.66
2022-08-05T16:50:54.449Z,32.88
2022-08-05T16:53:32.539Z,32.10
2022-08-05T16:56:11.681Z,32.03
2022-08-05T16:58:40.778Z,32.29
2022-08-05T17:01:10.838Z,32.55
2022-08-05T17:03:39.060Z,32.69
2022-08-05T17:06:07.510Z,32.28
2022-08-05T17:08:53.304Z,32.75
2022-08-05T17:11:23.491Z,32.96
2022-08-05T17:14:00.662Z,33.20
2022-08-05T17:16:36.602Z,33.64
2022-08-05T17:19:07.750Z,34.31
2022-08-05T17:21:39.645Z,34.23
2022-08-05T17:24:19.553Z,34.23
2022-08-05T17:26:57.351Z,33.69
2022-08-05T17:29:33.902Z,33.97
2022-08-05T17:32:11.927Z,34.74
2022-08-05T17:34:47.554Z,34.85
2022-08-05T17:37:39.417Z,35.42
2022-08-05T17:40:05.817Z,36.70
2022-08-05T17:42:41.656Z,37.06
2022-08-05T17:45:20.826Z,37.60
2022-08-05T17:47:54.643Z,37.43
2022-08-05T17:50:29.045Z,37.32
2022-08-05T17:53:00.146Z,37.27
2022-08-05T17:55:38.184Z,37.86
2022-08-05T17:58:12.481Z,37.97
2022-08-05T18:00:45.195Z,38.21
2022-08-05T18:03:58.612Z,38.77
2022-08-05T18:06:11.275Z,39.10
2022-08-05T18:08:44.846Z,39.51
2022-08-05T18:11:23.663Z,39.93
2022-08-05T18:14:03.576Z,39.94
2022-08-05T18:16:32.873Z,39.88
2022-08-05T18:19:02.550Z,40.27
2022-08-05T18:22:08.805Z,40.46
2022-08-05T18:24:18.762Z,40.96
2022-08-05T18:26:49.183Z,41.77
2022-08-05T18:29:17.416Z,42.41
2022-08-05T18:32:06.306Z,42.66
2022-08-05T18:34:41.062Z,43.51
2022-08-05T18:37:12.135Z,44.08
2022-08-05T18:40:31.434Z,44.19
2022-08-05T18:42:29.568Z,44.18
2022-08-05T18:44:57.760Z,44.64
2022-08-05T18:47:28.304Z,44.53
2022-08-05T18:50:18.221Z,44.90
2022-08-05T18:52:50.734Z,45.38
2022-08-05T18:55:19.908Z,45.30
2022-08-05T18:57:53.208Z,46.02
2022-08-05T19:00:29.169Z,45.51
2022-08-05T19:03:03.937Z,45.90
2022-08-05T19:06:11.671Z,46.22
2022-08-05T19:08:30.999Z,46.23
2022-08-05T19:11:02.785Z,46.70
2022-08-05T19:13:35.692Z,46.58
2022-08-05T19:16:05.686Z,46.75
2022-08-05T19:18:53.281Z,47.34
2022-08-05T19:21:27.644Z,47.07
2022-08-05T19:24:06.839Z,47.15
2022-08-05T19:26:54.398Z,47.15
2022-08-05T19:29:35.502Z,47.57
2022-08-05T19:32:04.514Z,47.36
2022-08-05T19:34:32.657Z,47.38
2022-08-05T19:37:02.326Z,47.31
2022-08-05T19:39:31.906Z,47.64
2022-08-05T19:42:15.356Z,47.55
2022-08-05T19:44:44.552Z,47.57
2022-08-05T19:47:16.046Z,48.04
2022-08-05T19:49:45.183Z,47.78
2022-08-05T19:52:30.611Z,47.46
2022-08-05T19:55:00.638Z,47.78
2022-08-05T19:58:00.635Z,47.84
2022-08-05T20:00:23.050Z,47.71
2022-08-05T20:02:51.143Z,47.86
2022-08-05T20:05:24.393Z,48.01
2022-08-05T20:07:58.929Z,47.98
2022-08-05T20:10:27.396Z,48.35
2022-08-05T20:12:57.088Z,48.17
2022-08-05T20:15:52.158Z,47.93
2022-08-05T20:18:33.583Z,48.03
2022-08-05T20:21:01.389Z,48.12
2022-08-05T20:23:40.006Z,48.20
2022-08-05T20:26:18.294Z,47.99
2022-08-05T20:28:48.593Z,48.25
2022-08-05T20:31:17.121Z,48.15
2022-08-05T20:33:45.735Z,48.09
2022-08-05T20:36:16.382Z,48.16
2022-08-05T20:38:54.337Z,48.04
2022-08-05T20:41:43.284Z,47.99
2022-08-05T20:44:29.788Z,47.91
2022-08-05T20:46:59.706Z,47.85
2022-08-05T20:49:27.854Z,47.11
2022-08-05T20:51:57.587Z,46.24
2022-08-05T20:54:43.442Z,46.12
2022-08-05T20:57:24.859Z,45.52
2022-08-05T21:00:19.783Z,44.84
2022-08-05T21:02:52.204Z,44.72
2022-08-05T21:05:20.509Z,44.80
2022-08-05T21:07:52.217Z,44.77
2022-08-05T21:10:22.182Z,44.58
2022-08-05T21:12:57.753Z,44.68
2022-08-05T21:15:33.671Z,44.76
2022-08-05T21:18:02.244Z,44.65
2022-08-05T21:20:33.534Z,44.58
2022-08-05T21:23:03.132Z,44.82
2022-08-05T21:25:33.700Z,44.72
2022-08-05T21:28:03.238Z,44.81
2022-08-05T21:30:31.631Z,44.79
2022-08-05T21:32:59.948Z,44.71
2022-08-05T21:35:56.045Z,44.63
2022-08-05T21:38:19.135Z,44.70
2022-08-05T21:40:48.722Z,44.63
2022-08-05T21:43:24.329Z,44.82
2022-08-05T21:45:56.350Z,45.10
2022-08-05T21:48:26.019Z,44.98
2022-08-05T21:50:54.646Z,45.23
2022-08-05T21:53:24.837Z,45.16
2022-08-05T21:56:09.812Z,45.31
2022-08-05T21:58:48.405Z,45.61
2022-08-05T22:01:25.428Z,45.53
2022-08-05T22:03:54.072Z,45.69
2022-08-05T22:06:35.199Z,45.79
2022-08-05T22:09:13.858Z,45.89
2022-08-05T22:11:47.122Z,46.08
2022-08-05T22:14:33.000Z,45.96
2022-08-05T22:17:05.395Z,46.17
2022-08-05T22:20:03.235Z,46.57
2022-08-05T22:22:27.333Z,46.61
2022-08-05T22:25:18.147Z,46.69
2022-08-05T22:28:11.379Z,46.97
2022-08-05T22:30:55.458Z,46.88
2022-08-05T22:33:55.650Z,47.00
2022-08-05T22:36:15.138Z,47.17
2022-08-05T22:38:48.260Z,47.11
2022-08-05T22:42:04.153Z,47.11
2022-08-05T22:44:07.917Z,47.39
2022-08-05T22:46:39.468Z,47.29
2022-08-05T22:49:08.174Z,47.25
2022-08-05T22:52:04.740Z,47.25
2022-08-05T22:54:35.041Z,47.15
2022-08-05T22:57:03.527Z,47.17
2022-08-05T22:59:48.287Z,47.11
2022-08-05T23:02:29.263Z,46.96
2022-08-05T23:05:01.940Z,47.10
2022-08-05T23:07:45.458Z,47.00
2022-08-05T23:10:20.167Z,46.91
2022-08-05T23:12:51.459Z,47.02
2022-08-05T23:15:27.005Z,47.14
2022-08-05T23:18:00.761Z,47.01
2022-08-05T23:20:31.048Z,47.03
2022-08-05T23:22:59.213Z,47.10
2022-08-05T23:25:53.362Z,47.06
2022-08-05T23:28:17.406Z,47.28
2022-08-05T23:30:53.799Z,47.21
2022-08-05T23:34:02.909Z,47.15
2022-08-05T23:36:13.394Z,47.32
2022-08-05T23:38:43.062Z,47.20
2022-08-05T23:41:12.262Z,47.07
2022-08-05T23:44:05.804Z,47.06
2022-08-05T23:46:31.158Z,46.93
2022-08-05T23:49:01.926Z,46.80
2022-08-05T23:52:01.261Z,46.94
2022-08-05T23:54:34.167Z,46.77
2022-08-05T23:57:06.654Z,46.78
